sensor_id;sensor_type;location;lat;lon;timestamp;P1;durP1;ratioP1;P2;durP2;ratioP2
70045;SDS011;57385;41.832;23.494;2022-12-29T00:00:39;75.85;;;45.65;;
70045;SDS011;57385;41.832;23.494;2022-12-29T00:02:01;72.72;;;43.92;;
70045;SDS011;57385;41.832;23.494;2022-12-29T00:03:23;75.38;;;44.72;;
70045;SDS011;57385;41.832;23.494;2022-12-29T00:04:45;73.25;;;45.05;;
70045;SDS011;57385;41.832;23.494;2022-12-29T00:06:09;77.88;;;46.90;;
70045;SDS011;57385;41.832;23.494;2022-12-29T00:07:31;72.38;;;43.55;;
70045;SDS011;57385;41.832;23.494;2022-12-29T00:08:53;79.78;;;47.63;;
70045;SDS011;57385;41.832;23.494;2022-12-29T00:10:15;75.07;;;46.75;;
70045;SDS011;57385;41.832;23.494;2022-12-29T00:11:37;79.88;;;46.10;;
70045;SDS011;57385;41.832;23.494;2022-12-29T00:12:58;88.80;;;50.75;;
70045;SDS011;57385;41.832;23.494;2022-12-29T00:14:40;84.43;;;51.40;;
70045;SDS011;57385;41.832;23.494;2022-12-29T00:16:20;83.30;;;50.65;;
70045;SDS011;57385;41.832;23.494;2022-12-29T00:17:42;80.80;;;49.33;;
70045;SDS011;57385;41.832;23.494;2022-12-29T00:19:04;85.57;;;50.78;;
70045;SDS011;57385;41.832;23.494;2022-12-29T00:20:26;95.68;;;54.38;;
70045;SDS011;57385;41.832;23.494;2022-12-29T00:23:48;98.47;;;58.03;;
70045;SDS011;57385;41.832;23.494;2022-12-29T00:25:28;106.35;;;62.05;;
70045;SDS011;57385;41.832;23.494;2022-12-29T00:27:11;109.45;;;62.50;;
70045;SDS011;57385;41.832;23.494;2022-12-29T00:28:52;106.07;;;64.93;;
70045;SDS011;57385;41.832;23.494;2022-12-29T00:30:37;112.20;;;64.28;;
70045;SDS011;57385;41.832;23.494;2022-12-29T00:32:18;111.80;;;67.40;;
70045;SDS011;57385;41.832;23.494;2022-12-29T00:33:58;123.97;;;71.00;;
70045;SDS011;57385;41.832;23.494;2022-12-29T00:35:39;115.35;;;70.35;;
70045;SDS011;57385;41.832;23.494;2022-12-29T00:37:12;118.82;;;72.22;;
70045;SDS011;57385;41.832;23.494;2022-12-29T00:38:35;131.65;;;75.80;;
70045;SDS011;57385;41.832;23.494;2022-12-29T00:40:19;135.38;;;77.47;;
70045;SDS011;57385;41.832;23.494;2022-12-29T00:42:03;118.97;;;74.38;;
70045;SDS011;57385;41.832;23.494;2022-12-29T00:43:44;100.20;;;62.33;;
70045;SDS011;57385;41.832;23.494;2022-12-29T00:45:24;85.32;;;54.38;;
70045;SDS011;57385;41.832;23.494;2022-12-29T00:46:46;73.15;;;47.33;;
70045;SDS011;57385;41.832;23.494;2022-12-29T00:48:08;101.10;;;63.75;;
70045;SDS011;57385;41.832;23.494;2022-12-29T00:49:30;96.22;;;61.63;;
70045;SDS011;57385;41.832;23.494;2022-12-29T00:50:55;88.43;;;57.80;;
70045;SDS011;57385;41.832;23.494;2022-12-29T00:52:17;85.45;;;55.95;;
70045;SDS011;57385;41.832;23.494;2022-12-29T00:53:39;82.95;;;55.00;;
70045;SDS011;57385;41.832;23.494;2022-12-29T00:55:01;80.60;;;53.08;;
70045;SDS011;57385;41.832;23.494;2022-12-29T00:56:23;75.70;;;49.55;;
70045;SDS011;57385;41.832;23.494;2022-12-29T00:57:45;73.60;;;46.10;;
70045;SDS011;57385;41.832;23.494;2022-12-29T00:59:08;68.25;;;43.50;;
70045;SDS011;57385;41.832;23.494;2022-12-29T01:00:31;63.30;;;41.58;;
70045;SDS011;57385;41.832;23.494;2022-12-29T01:01:54;68.50;;;41.08;;
70045;SDS011;57385;41.832;23.494;2022-12-29T01:03:17;72.30;;;40.92;;
70045;SDS011;57385;41.832;23.494;2022-12-29T01:04:38;67.22;;;39.90;;
70045;SDS011;57385;41.832;23.494;2022-12-29T01:06:05;62.67;;;39.15;;
70045;SDS011;57385;41.832;23.494;2022-12-29T01:07:30;66.25;;;39.42;;
70045;SDS011;57385;41.832;23.494;2022-12-29T01:08:55;66.40;;;37.95;;
70045;SDS011;57385;41.832;23.494;2022-12-29T01:10:35;69.63;;;40.35;;
70045;SDS011;57385;41.832;23.494;2022-12-29T01:11:57;65.40;;;40.25;;
70045;SDS011;57385;41.832;23.494;2022-12-29T01:13:19;72.03;;;41.15;;
70045;SDS011;57385;41.832;23.494;2022-12-29T01:14:42;64.10;;;40.30;;
70045;SDS011;57385;41.832;23.494;2022-12-29T01:16:04;65.90;;;39.47;;
70045;SDS011;57385;41.832;23.494;2022-12-29T01:17:27;63.90;;;40.97;;
70045;SDS011;57385;41.832;23.494;2022-12-29T01:18:49;67.95;;;39.05;;
70045;SDS011;57385;41.832;23.494;2022-12-29T01:20:11;67.55;;;40.10;;
70045;SDS011;57385;41.832;23.494;2022-12-29T01:21:33;72.18;;;43.70;;
70045;SDS011;57385;41.832;23.494;2022-12-29T01:22:58;62.33;;;38.03;;
70045;SDS011;57385;41.832;23.494;2022-12-29T01:24:20;56.40;;;35.65;;
70045;SDS011;57385;41.832;23.494;2022-12-29T01:25:42;56.83;;;35.83;;
70045;SDS011;57385;41.832;23.494;2022-12-29T01:27:04;61.40;;;37.08;;
70045;SDS011;57385;41.832;23.494;2022-12-29T01:28:27;74.45;;;44.30;;
70045;SDS011;57385;41.832;23.494;2022-12-29T01:29:48;72.45;;;43.90;;
70045;SDS011;57385;41.832;23.494;2022-12-29T01:31:11;70.32;;;43.85;;
70045;SDS011;57385;41.832;23.494;2022-12-29T01:32:34;73.88;;;43.83;;
70045;SDS011;57385;41.832;23.494;2022-12-29T01:33:56;90.15;;;54.35;;
70045;SDS011;57385;41.832;23.494;2022-12-29T01:35:18;79.45;;;49.83;;
70045;SDS011;57385;41.832;23.494;2022-12-29T01:36:40;85.47;;;50.13;;
70045;SDS011;57385;41.832;23.494;2022-12-29T01:38:02;93.10;;;54.20;;
70045;SDS011;57385;41.832;23.494;2022-12-29T01:39:24;81.85;;;48.72;;
70045;SDS011;57385;41.832;23.494;2022-12-29T01:40:46;81.53;;;50.65;;
70045;SDS011;57385;41.832;23.494;2022-12-29T01:42:12;76.35;;;48.15;;
70045;SDS011;57385;41.832;23.494;2022-12-29T01:43:40;79.63;;;49.22;;
70045;SDS011;57385;41.832;23.494;2022-12-29T01:48:08;79.78;;;47.95;;
70045;SDS011;57385;41.832;23.494;2022-12-29T01:49:30;79.38;;;47.10;;
70045;SDS011;57385;41.832;23.494;2022-12-29T01:50:53;76.78;;;46.70;;
70045;SDS011;57385;41.832;23.494;2022-12-29T01:52:15;73.50;;;45.88;;
70045;SDS011;57385;41.832;23.494;2022-12-29T01:53:38;73.15;;;44.20;;
70045;SDS011;57385;41.832;23.494;2022-12-29T01:54:59;70.57;;;43.20;;
70045;SDS011;57385;41.832;23.494;2022-12-29T01:56:24;68.97;;;44.38;;
70045;SDS011;57385;41.832;23.494;2022-12-29T01:57:46;67.70;;;40.20;;
70045;SDS011;57385;41.832;23.494;2022-12-29T01:59:12;67.03;;;41.65;;
70045;SDS011;57385;41.832;23.494;2022-12-29T02:00:38;66.30;;;41.75;;
70045;SDS011;57385;41.832;23.494;2022-12-29T02:02:00;69.43;;;43.42;;
70045;SDS011;57385;41.832;23.494;2022-12-29T02:03:24;67.88;;;42.17;;
70045;SDS011;57385;41.832;23.494;2022-12-29T02:04:47;64.28;;;41.75;;
70045;SDS011;57385;41.832;23.494;2022-12-29T02:07:37;59.80;;;40.30;;
70045;SDS011;57385;41.832;23.494;2022-12-29T02:09:00;70.13;;;41.40;;
70045;SDS011;57385;41.832;23.494;2022-12-29T02:10:23;68.88;;;41.88;;
70045;SDS011;57385;41.832;23.494;2022-12-29T02:11:49;71.65;;;43.33;;
70045;SDS011;57385;41.832;23.494;2022-12-29T02:13:14;67.78;;;42.53;;
70045;SDS011;57385;41.832;23.494;2022-12-29T02:14:37;71.95;;;43.33;;
70045;SDS011;57385;41.832;23.494;2022-12-29T02:25:45;75.88;;;44.10;;
70045;SDS011;57385;41.832;23.494;2022-12-29T02:29:11;77.72;;;45.00;;
70045;SDS011;57385;41.832;23.494;2022-12-29T02:40:11;48.83;;;31.45;;
70045;SDS011;57385;41.832;23.494;2022-12-29T02:41:56;50.10;;;32.25;;
70045;SDS011;57385;41.832;23.494;2022-12-29T02:43:54;52.70;;;31.83;;
70045;SDS011;57385;41.832;23.494;2022-12-29T02:50:39;47.13;;;29.60;;
70045;SDS011;57385;41.832;23.494;2022-12-29T02:52:16;43.08;;;28.08;;
70045;SDS011;57385;41.832;23.494;2022-12-29T02:53:40;38.95;;;27.08;;
70045;SDS011;57385;41.832;23.494;2022-12-29T02:55:21;35.25;;;24.02;;
70045;SDS011;57385;41.832;23.494;2022-12-29T02:56:43;34.58;;;23.52;;
70045;SDS011;57385;41.832;23.494;2022-12-29T02:59:30;28.52;;;18.73;;
70045;SDS011;57385;41.832;23.494;2022-12-29T03:03:15;24.90;;;17.20;;
70045;SDS011;57385;41.832;23.494;2022-12-29T03:07:02;28.33;;;17.88;;
70045;SDS011;57385;41.832;23.494;2022-12-29T03:16:47;19.80;;;11.27;;
70045;SDS011;57385;41.832;23.494;2022-12-29T03:18:19;17.35;;;11.48;;
70045;SDS011;57385;41.832;23.494;2022-12-29T03:19:46;14.52;;;10.80;;
70045;SDS011;57385;41.832;23.494;2022-12-29T03:23:07;19.35;;;11.68;;
70045;SDS011;57385;41.832;23.494;2022-12-29T03:24:32;14.68;;;10.23;;
70045;SDS011;57385;41.832;23.494;2022-12-29T03:26:01;14.13;;;10.73;;
70045;SDS011;57385;41.832;23.494;2022-12-29T03:27:27;15.95;;;11.20;;
70045;SDS011;57385;41.832;23.494;2022-12-29T03:28:53;33.28;;;18.95;;
70045;SDS011;57385;41.832;23.494;2022-12-29T03:30:21;29.85;;;17.35;;
70045;SDS011;57385;41.832;23.494;2022-12-29T03:31:44;26.52;;;15.70;;
70045;SDS011;57385;41.832;23.494;2022-12-29T03:33:10;29.67;;;16.92;;
70045;SDS011;57385;41.832;23.494;2022-12-29T03:34:38;28.77;;;16.17;;
70045;SDS011;57385;41.832;23.494;2022-12-29T03:36:02;20.70;;;13.23;;
70045;SDS011;57385;41.832;23.494;2022-12-29T03:37:31;17.30;;;11.02;;
70045;SDS011;57385;41.832;23.494;2022-12-29T03:39:01;10.60;;;8.85;;
70045;SDS011;57385;41.832;23.494;2022-12-29T03:40:29;11.93;;;8.60;;
70045;SDS011;57385;41.832;23.494;2022-12-29T03:41:57;13.23;;;9.77;;
70045;SDS011;57385;41.832;23.494;2022-12-29T03:43:27;12.43;;;9.57;;
70045;SDS011;57385;41.832;23.494;2022-12-29T03:44:49;13.90;;;9.20;;
70045;SDS011;57385;41.832;23.494;2022-12-29T03:46:17;14.10;;;9.23;;
70045;SDS011;57385;41.832;23.494;2022-12-29T03:47:40;14.90;;;9.70;;
70045;SDS011;57385;41.832;23.494;2022-12-29T03:49:02;13.60;;;9.48;;
70045;SDS011;57385;41.832;23.494;2022-12-29T03:50:24;13.15;;;9.93;;
70045;SDS011;57385;41.832;23.494;2022-12-29T03:51:47;17.55;;;12.27;;
70045;SDS011;57385;41.832;23.494;2022-12-29T03:53:12;22.52;;;15.38;;
70045;SDS011;57385;41.832;23.494;2022-12-29T03:54:35;28.88;;;19.00;;
70045;SDS011;57385;41.832;23.494;2022-12-29T03:55:57;38.20;;;21.00;;
70045;SDS011;57385;41.832;23.494;2022-12-29T03:57:19;36.47;;;20.95;;
70045;SDS011;57385;41.832;23.494;2022-12-29T03:58:50;33.45;;;20.08;;
70045;SDS011;57385;41.832;23.494;2022-12-29T04:00:18;44.88;;;26.52;;
70045;SDS011;57385;41.832;23.494;2022-12-29T04:01:42;41.97;;;23.45;;
70045;SDS011;57385;41.832;23.494;2022-12-29T04:03:06;28.73;;;18.65;;
70045;SDS011;57385;41.832;23.494;2022-12-29T04:04:28;21.48;;;13.15;;
70045;SDS011;57385;41.832;23.494;2022-12-29T04:05:50;17.95;;;11.25;;
70045;SDS011;57385;41.832;23.494;2022-12-29T04:07:12;16.73;;;12.98;;
70045;SDS011;57385;41.832;23.494;2022-12-29T04:08:35;15.48;;;12.02;;
70045;SDS011;57385;41.832;23.494;2022-12-29T04:09:57;15.75;;;11.27;;
70045;SDS011;57385;41.832;23.494;2022-12-29T04:11:21;17.60;;;11.40;;
70045;SDS011;57385;41.832;23.494;2022-12-29T04:12:51;13.48;;;10.18;;
70045;SDS011;57385;41.832;23.494;2022-12-29T04:14:13;15.93;;;10.77;;
70045;SDS011;57385;41.832;23.494;2022-12-29T04:15:38;17.77;;;11.25;;
70045;SDS011;57385;41.832;23.494;2022-12-29T04:17:00;17.33;;;11.13;;
70045;SDS011;57385;41.832;23.494;2022-12-29T04:18:23;16.08;;;11.38;;
70045;SDS011;57385;41.832;23.494;2022-12-29T04:19:45;16.52;;;11.15;;
70045;SDS011;57385;41.832;23.494;2022-12-29T04:21:07;18.55;;;12.25;;
70045;SDS011;57385;41.832;23.494;2022-12-29T04:22:31;20.20;;;13.20;;
70045;SDS011;57385;41.832;23.494;2022-12-29T04:23:53;17.65;;;12.10;;
70045;SDS011;57385;41.832;23.494;2022-12-29T04:25:15;17.98;;;11.27;;
70045;SDS011;57385;41.832;23.494;2022-12-29T04:26:38;17.10;;;11.70;;
70045;SDS011;57385;41.832;23.494;2022-12-29T04:28:35;21.15;;;13.45;;
70045;SDS011;57385;41.832;23.494;2022-12-29T04:30:23;26.30;;;14.98;;
70045;SDS011;57385;41.832;23.494;2022-12-29T04:32:06;25.67;;;16.88;;
70045;SDS011;57385;41.832;23.494;2022-12-29T04:33:32;25.30;;;15.80;;
70045;SDS011;57385;41.832;23.494;2022-12-29T04:34:53;26.80;;;16.63;;
70045;SDS011;57385;41.832;23.494;2022-12-29T04:36:15;26.17;;;15.52;;
70045;SDS011;57385;41.832;23.494;2022-12-29T04:37:38;29.63;;;17.92;;
70045;SDS011;57385;41.832;23.494;2022-12-29T04:39:00;37.30;;;22.13;;
70045;SDS011;57385;41.832;23.494;2022-12-29T04:40:22;32.15;;;20.70;;
70045;SDS011;57385;41.832;23.494;2022-12-29T04:41:45;34.47;;;20.58;;
70045;SDS011;57385;41.832;23.494;2022-12-29T04:43:11;36.25;;;20.17;;
70045;SDS011;57385;41.832;23.494;2022-12-29T04:44:53;36.28;;;21.98;;
70045;SDS011;57385;41.832;23.494;2022-12-29T04:46:35;33.97;;;20.05;;
70045;SDS011;57385;41.832;23.494;2022-12-29T04:48:02;43.30;;;22.35;;
70045;SDS011;57385;41.832;23.494;2022-12-29T04:49:37;39.10;;;24.38;;
70045;SDS011;57385;41.832;23.494;2022-12-29T04:51:24;50.85;;;28.80;;
70045;SDS011;57385;41.832;23.494;2022-12-29T04:52:45;59.65;;;34.50;;
70045;SDS011;57385;41.832;23.494;2022-12-29T04:54:07;59.60;;;36.33;;
70045;SDS011;57385;41.832;23.494;2022-12-29T04:55:30;72.95;;;40.08;;
70045;SDS011;57385;41.832;23.494;2022-12-29T04:56:52;79.15;;;43.00;;
70045;SDS011;57385;41.832;23.494;2022-12-29T04:58:14;100.38;;;53.05;;
70045;SDS011;57385;41.832;23.494;2022-12-29T04:59:42;102.85;;;56.40;;
70045;SDS011;57385;41.832;23.494;2022-12-29T05:01:04;125.18;;;66.03;;
70045;SDS011;57385;41.832;23.494;2022-12-29T05:02:27;123.13;;;67.10;;
70045;SDS011;57385;41.832;23.494;2022-12-29T05:03:50;120.53;;;65.95;;
70045;SDS011;57385;41.832;23.494;2022-12-29T05:05:12;129.05;;;68.63;;
70045;SDS011;57385;41.832;23.494;2022-12-29T05:06:38;126.45;;;68.15;;
70045;SDS011;57385;41.832;23.494;2022-12-29T05:08:00;125.95;;;66.90;;
70045;SDS011;57385;41.832;23.494;2022-12-29T05:09:23;127.93;;;70.60;;
70045;SDS011;57385;41.832;23.494;2022-12-29T05:10:45;125.35;;;68.93;;
70045;SDS011;57385;41.832;23.494;2022-12-29T05:12:08;118.45;;;65.95;;
70045;SDS011;57385;41.832;23.494;2022-12-29T05:13:38;120.80;;;66.93;;
70045;SDS011;57385;41.832;23.494;2022-12-29T05:15:01;125.10;;;68.60;;
70045;SDS011;57385;41.832;23.494;2022-12-29T05:16:24;124.88;;;69.75;;
70045;SDS011;57385;41.832;23.494;2022-12-29T05:20:59;110.95;;;64.55;;
70045;SDS011;57385;41.832;23.494;2022-12-29T05:22:21;120.00;;;71.72;;
70045;SDS011;57385;41.832;23.494;2022-12-29T05:23:43;127.32;;;72.85;;
70045;SDS011;57385;41.832;23.494;2022-12-29T05:25:07;119.53;;;70.53;;
70045;SDS011;57385;41.832;23.494;2022-12-29T05:26:42;119.68;;;67.53;;
70045;SDS011;57385;41.832;23.494;2022-12-29T05:28:29;88.50;;;53.80;;
70045;SDS011;57385;41.832;23.494;2022-12-29T05:29:58;79.50;;;51.35;;
70045;SDS011;57385;41.832;23.494;2022-12-29T05:31:20;74.30;;;47.22;;
70045;SDS011;57385;41.832;23.494;2022-12-29T05:32:41;71.90;;;48.75;;
70045;SDS011;57385;41.832;23.494;2022-12-29T05:34:03;69.28;;;49.80;;
70045;SDS011;57385;41.832;23.494;2022-12-29T05:35:25;73.18;;;51.92;;
70045;SDS011;57385;41.832;23.494;2022-12-29T05:36:47;80.22;;;54.35;;
70045;SDS011;57385;41.832;23.494;2022-12-29T05:38:09;72.50;;;51.38;;
70045;SDS011;57385;41.832;23.494;2022-12-29T05:39:31;80.45;;;53.53;;
70045;SDS011;57385;41.832;23.494;2022-12-29T05:40:56;73.43;;;51.13;;
70045;SDS011;57385;41.832;23.494;2022-12-29T05:42:41;84.25;;;57.65;;
70045;SDS011;57385;41.832;23.494;2022-12-29T05:44:22;96.75;;;66.28;;
70045;SDS011;57385;41.832;23.494;2022-12-29T05:46:03;100.20;;;68.28;;
70045;SDS011;57385;41.832;23.494;2022-12-29T05:47:37;100.07;;;69.10;;
70045;SDS011;57385;41.832;23.494;2022-12-29T05:49:37;92.93;;;63.28;;
70045;SDS011;57385;41.832;23.494;2022-12-29T05:53:47;82.15;;;56.17;;
70045;SDS011;57385;41.832;23.494;2022-12-29T05:55:10;78.13;;;53.15;;
70045;SDS011;57385;41.832;23.494;2022-12-29T05:56:33;72.93;;;52.65;;
70045;SDS011;57385;41.832;23.494;2022-12-29T05:57:56;82.82;;;57.85;;
70045;SDS011;57385;41.832;23.494;2022-12-29T05:59:18;152.18;;;118.70;;
70045;SDS011;57385;41.832;23.494;2022-12-29T06:00:41;138.85;;;98.28;;
70045;SDS011;57385;41.832;23.494;2022-12-29T06:02:03;140.43;;;90.38;;
70045;SDS011;57385;41.832;23.494;2022-12-29T06:03:27;143.98;;;86.63;;
70045;SDS011;57385;41.832;23.494;2022-12-29T06:04:50;134.27;;;83.07;;
70045;SDS011;57385;41.832;23.494;2022-12-29T06:06:12;146.48;;;92.50;;
70045;SDS011;57385;41.832;23.494;2022-12-29T06:07:34;149.43;;;91.68;;
70045;SDS011;57385;41.832;23.494;2022-12-29T06:08:56;143.75;;;88.13;;
70045;SDS011;57385;41.832;23.494;2022-12-29T06:10:18;167.73;;;97.55;;
70045;SDS011;57385;41.832;23.494;2022-12-29T06:11:46;160.52;;;93.40;;
70045;SDS011;57385;41.832;23.494;2022-12-29T06:13:08;155.40;;;88.57;;
70045;SDS011;57385;41.832;23.494;2022-12-29T06:14:33;152.88;;;89.47;;
70045;SDS011;57385;41.832;23.494;2022-12-29T06:15:56;164.40;;;90.40;;
70045;SDS011;57385;41.832;23.494;2022-12-29T06:17:20;149.95;;;85.18;;
70045;SDS011;57385;41.832;23.494;2022-12-29T06:18:43;145.20;;;80.70;;
70045;SDS011;57385;41.832;23.494;2022-12-29T06:20:06;128.75;;;75.18;;
70045;SDS011;57385;41.832;23.494;2022-12-29T06:21:29;125.25;;;73.50;;
70045;SDS011;57385;41.832;23.494;2022-12-29T06:22:53;119.60;;;70.32;;
70045;SDS011;57385;41.832;23.494;2022-12-29T06:24:16;114.60;;;66.53;;
70045;SDS011;57385;41.832;23.494;2022-12-29T06:25:38;105.72;;;59.53;;
70045;SDS011;57385;41.832;23.494;2022-12-29T06:27:00;93.53;;;56.22;;
70045;SDS011;57385;41.832;23.494;2022-12-29T06:28:22;97.78;;;55.42;;
70045;SDS011;57385;41.832;23.494;2022-12-29T06:29:46;90.10;;;55.47;;
70045;SDS011;57385;41.832;23.494;2022-12-29T06:31:09;97.50;;;56.45;;
70045;SDS011;57385;41.832;23.494;2022-12-29T06:32:31;107.18;;;61.00;;
70045;SDS011;57385;41.832;23.494;2022-12-29T06:33:56;105.10;;;61.70;;
70045;SDS011;57385;41.832;23.494;2022-12-29T06:35:23;95.28;;;57.92;;
70045;SDS011;57385;41.832;23.494;2022-12-29T06:36:45;95.15;;;57.20;;
70045;SDS011;57385;41.832;23.494;2022-12-29T06:38:07;96.65;;;57.00;;
70045;SDS011;57385;41.832;23.494;2022-12-29T06:39:29;103.32;;;61.90;;
70045;SDS011;57385;41.832;23.494;2022-12-29T06:40:59;115.38;;;64.45;;
70045;SDS011;57385;41.832;23.494;2022-12-29T06:42:32;111.80;;;68.57;;
70045;SDS011;57385;41.832;23.494;2022-12-29T06:44:12;118.68;;;69.03;;
70045;SDS011;57385;41.832;23.494;2022-12-29T06:45:48;118.18;;;69.78;;
70045;SDS011;57385;41.832;23.494;2022-12-29T06:47:10;130.73;;;71.07;;
70045;SDS011;57385;41.832;23.494;2022-12-29T06:48:32;137.73;;;77.68;;
70045;SDS011;57385;41.832;23.494;2022-12-29T06:49:54;244.30;;;147.50;;
70045;SDS011;57385;41.832;23.494;2022-12-29T06:51:15;305.08;;;181.50;;
70045;SDS011;57385;41.832;23.494;2022-12-29T06:52:37;299.45;;;191.27;;
70045;SDS011;57385;41.832;23.494;2022-12-29T06:53:59;314.05;;;192.75;;
70045;SDS011;57385;41.832;23.494;2022-12-29T06:55:21;187.45;;;123.63;;
70045;SDS011;57385;41.832;23.494;2022-12-29T06:56:43;204.05;;;128.30;;
70045;SDS011;57385;41.832;23.494;2022-12-29T06:58:05;354.63;;;228.73;;
70045;SDS011;57385;41.832;23.494;2022-12-29T06:59:27;350.92;;;219.88;;
70045;SDS011;57385;41.832;23.494;2022-12-29T07:00:49;140.65;;;85.38;;
70045;SDS011;57385;41.832;23.494;2022-12-29T07:02:10;138.15;;;79.28;;
70045;SDS011;57385;41.832;23.494;2022-12-29T07:03:35;120.72;;;74.72;;
70045;SDS011;57385;41.832;23.494;2022-12-29T07:04:57;172.10;;;100.15;;
70045;SDS011;57385;41.832;23.494;2022-12-29T07:06:19;164.73;;;95.18;;
70045;SDS011;57385;41.832;23.494;2022-12-29T07:07:41;103.78;;;61.58;;
70045;SDS011;57385;41.832;23.494;2022-12-29T07:09:03;112.65;;;67.47;;
70045;SDS011;57385;41.832;23.494;2022-12-29T07:10:24;109.80;;;68.63;;
70045;SDS011;57385;41.832;23.494;2022-12-29T07:11:46;165.15;;;90.05;;
70045;SDS011;57385;41.832;23.494;2022-12-29T07:13:08;150.15;;;86.32;;
70045;SDS011;57385;41.832;23.494;2022-12-29T07:14:30;151.07;;;88.63;;
70045;SDS011;57385;41.832;23.494;2022-12-29T07:15:58;133.20;;;79.07;;
70045;SDS011;57385;41.832;23.494;2022-12-29T07:17:25;131.00;;;88.50;;
70045;SDS011;57385;41.832;23.494;2022-12-29T07:18:47;158.68;;;101.50;;
70045;SDS011;57385;41.832;23.494;2022-12-29T07:20:09;161.40;;;104.15;;
70045;SDS011;57385;41.832;23.494;2022-12-29T07:21:31;173.40;;;109.15;;
70045;SDS011;57385;41.832;23.494;2022-12-29T07:22:53;195.48;;;124.40;;
70045;SDS011;57385;41.832;23.494;2022-12-29T07:24:15;196.50;;;127.70;;
70045;SDS011;57385;41.832;23.494;2022-12-29T07:25:37;202.85;;;126.95;;
70045;SDS011;57385;41.832;23.494;2022-12-29T07:27:01;213.52;;;134.93;;
70045;SDS011;57385;41.832;23.494;2022-12-29T07:28:23;225.38;;;140.50;;
70045;SDS011;57385;41.832;23.494;2022-12-29T07:29:45;336.25;;;193.23;;
70045;SDS011;57385;41.832;23.494;2022-12-29T07:31:09;317.80;;;180.27;;
70045;SDS011;57385;41.832;23.494;2022-12-29T07:32:36;286.92;;;167.20;;
70045;SDS011;57385;41.832;23.494;2022-12-29T07:33:58;254.52;;;147.23;;
70045;SDS011;57385;41.832;23.494;2022-12-29T07:35:20;182.45;;;113.07;;
70045;SDS011;57385;41.832;23.494;2022-12-29T07:36:42;138.82;;;86.72;;
70045;SDS011;57385;41.832;23.494;2022-12-29T07:38:04;117.75;;;74.80;;
70045;SDS011;57385;41.832;23.494;2022-12-29T07:39:26;113.70;;;72.72;;
70045;SDS011;57385;41.832;23.494;2022-12-29T07:40:48;115.20;;;76.43;;
70045;SDS011;57385;41.832;23.494;2022-12-29T07:42:10;112.32;;;71.25;;
70045;SDS011;57385;41.832;23.494;2022-12-29T07:43:37;97.32;;;66.35;;
70045;SDS011;57385;41.832;23.494;2022-12-29T07:45:17;127.82;;;83.97;;
70045;SDS011;57385;41.832;23.494;2022-12-29T07:46:55;130.45;;;83.45;;
70045;SDS011;57385;41.832;23.494;2022-12-29T07:48:18;113.70;;;75.53;;
70045;SDS011;57385;41.832;23.494;2022-12-29T07:49:41;113.32;;;73.82;;
70045;SDS011;57385;41.832;23.494;2022-12-29T07:51:03;119.05;;;77.05;;
70045;SDS011;57385;41.832;23.494;2022-12-29T07:52:25;109.18;;;72.22;;
70045;SDS011;57385;41.832;23.494;2022-12-29T07:53:47;102.80;;;75.32;;
70045;SDS011;57385;41.832;23.494;2022-12-29T07:55:09;97.35;;;70.68;;
70045;SDS011;57385;41.832;23.494;2022-12-29T07:56:31;100.85;;;70.80;;
70045;SDS011;57385;41.832;23.494;2022-12-29T07:57:53;96.35;;;67.28;;
70045;SDS011;57385;41.832;23.494;2022-12-29T07:59:15;96.03;;;67.47;;
70045;SDS011;57385;41.832;23.494;2022-12-29T08:00:38;108.07;;;77.53;;
70045;SDS011;57385;41.832;23.494;2022-12-29T08:02:00;115.80;;;76.90;;
70045;SDS011;57385;41.832;23.494;2022-12-29T08:03:23;117.13;;;81.13;;
70045;SDS011;57385;41.832;23.494;2022-12-29T08:04:46;121.30;;;81.88;;
70045;SDS011;57385;41.832;23.494;2022-12-29T08:06:09;108.70;;;77.13;;
70045;SDS011;57385;41.832;23.494;2022-12-29T08:07:31;104.28;;;75.25;;
70045;SDS011;57385;41.832;23.494;2022-12-29T08:08:53;119.18;;;82.80;;
70045;SDS011;57385;41.832;23.494;2022-12-29T08:10:17;113.68;;;86.25;;
70045;SDS011;57385;41.832;23.494;2022-12-29T08:11:39;120.63;;;87.88;;
70045;SDS011;57385;41.832;23.494;2022-12-29T08:13:00;126.75;;;92.10;;
70045;SDS011;57385;41.832;23.494;2022-12-29T08:14:22;132.73;;;97.72;;
70045;SDS011;57385;41.832;23.494;2022-12-29T08:15:44;117.63;;;84.40;;
70045;SDS011;57385;41.832;23.494;2022-12-29T08:17:07;137.13;;;95.35;;
70045;SDS011;57385;41.832;23.494;2022-12-29T08:18:28;148.15;;;99.35;;
70045;SDS011;57385;41.832;23.494;2022-12-29T08:19:50;124.25;;;89.90;;
70045;SDS011;57385;41.832;23.494;2022-12-29T08:21:12;126.22;;;90.40;;
70045;SDS011;57385;41.832;23.494;2022-12-29T08:22:34;130.70;;;90.25;;
70045;SDS011;57385;41.832;23.494;2022-12-29T08:23:56;120.95;;;83.88;;
70045;SDS011;57385;41.832;23.494;2022-12-29T08:25:20;104.63;;;76.53;;
70045;SDS011;57385;41.832;23.494;2022-12-29T08:26:42;108.13;;;78.40;;
70045;SDS011;57385;41.832;23.494;2022-12-29T08:28:03;107.93;;;79.88;;
70045;SDS011;57385;41.832;23.494;2022-12-29T08:29:25;107.00;;;79.25;;
70045;SDS011;57385;41.832;23.494;2022-12-29T08:30:47;119.35;;;89.72;;
70045;SDS011;57385;41.832;23.494;2022-12-29T08:32:09;122.43;;;87.13;;
70045;SDS011;57385;41.832;23.494;2022-12-29T08:33:31;128.43;;;92.47;;
70045;SDS011;57385;41.832;23.494;2022-12-29T08:34:53;170.55;;;126.38;;
70045;SDS011;57385;41.832;23.494;2022-12-29T08:36:15;149.93;;;110.20;;
70045;SDS011;57385;41.832;23.494;2022-12-29T08:37:37;164.73;;;117.00;;
70045;SDS011;57385;41.832;23.494;2022-12-29T08:38:59;175.15;;;125.30;;
70045;SDS011;57385;41.832;23.494;2022-12-29T08:40:21;116.40;;;85.40;;
70045;SDS011;57385;41.832;23.494;2022-12-29T08:41:43;153.13;;;106.75;;
70045;SDS011;57385;41.832;23.494;2022-12-29T08:43:05;246.90;;;163.98;;
70045;SDS011;57385;41.832;23.494;2022-12-29T08:44:28;120.22;;;89.90;;
70045;SDS011;57385;41.832;23.494;2022-12-29T08:45:50;118.53;;;91.07;;
70045;SDS011;57385;41.832;23.494;2022-12-29T08:47:12;135.43;;;98.15;;
70045;SDS011;57385;41.832;23.494;2022-12-29T08:48:33;126.00;;;96.78;;
70045;SDS011;57385;41.832;23.494;2022-12-29T08:49:55;143.77;;;110.22;;
70045;SDS011;57385;41.832;23.494;2022-12-29T08:51:17;124.20;;;95.70;;
70045;SDS011;57385;41.832;23.494;2022-12-29T08:52:44;130.40;;;100.82;;
70045;SDS011;57385;41.832;23.494;2022-12-29T08:54:06;128.77;;;98.32;;
70045;SDS011;57385;41.832;23.494;2022-12-29T08:55:28;124.88;;;100.35;;
70045;SDS011;57385;41.832;23.494;2022-12-29T08:56:50;127.53;;;98.32;;
70045;SDS011;57385;41.832;23.494;2022-12-29T08:58:13;127.53;;;99.88;;
70045;SDS011;57385;41.832;23.494;2022-12-29T08:59:37;128.88;;;101.32;;
70045;SDS011;57385;41.832;23.494;2022-12-29T09:00:59;145.23;;;112.88;;
70045;SDS011;57385;41.832;23.494;2022-12-29T09:02:21;159.30;;;124.68;;